LROP/OTP METAR and TAF weather

Enter ICAO airport designator
Station Type Date Time Source
LROP METAR 2021/07/29 03:30 UTC NOAA

LROP 290330Z 32003KT 250V020 CAVOK 20/19 Q1013 NOSIG


Station Type Date Time Source
LROP Decoded METAR 2021/07/29 03:30 UTC NOAA

Bucuresti Otopeni, Romania (LROP) 44-33N 026-06E 95M
Jul 28, 2021 - 11:30 PM EDT / 2021.07.29 0330 UTC
Wind: from the NW (320 degrees) at 3 MPH (3 KT) (direction variable):0
Visibility: greater than 7 mile(s):0
Temperature: 68 F (20 C)
Dew Point: 66 F (19 C)
Relative Humidity: 93%
Pressure (altimeter): 29.91 in. Hg (1013 hPa)
ob: LROP 290330Z 32003KT 250V020 CAVOK 20/19 Q1013 NOSIG
cycle: 3

Station Type Date Time Source
LROP TAF 2021/07/28 19:40 UTC NOAA

TAF
AMD LROP 281933Z 2819/2918 VRB04KT 9999 -TSRA SCT040CB
TEMPO 2819/2821 VRB30G45KT 3000 TSRA BKN030CB
BECMG 2821/2823 CAVOK

Example: see airport list